createdAt,value
2023-02-24T00:00:38.772Z,61.62
2023-02-24T00:03:16.654Z,63.29
2023-02-24T00:05:48.388Z,64.60
2023-02-24T00:08:16.461Z,64.55
2023-02-24T00:10:44.738Z,64.10
2023-02-24T00:13:12.698Z,63.91
2023-02-24T00:15:40.900Z,63.52
2023-02-24T00:18:09.866Z,63.36
2023-02-24T00:20:37.957Z,62.50
2023-02-24T00:23:05.909Z,61.94
2023-02-24T00:25:33.973Z,61.30
2023-02-24T00:28:02.587Z,61.38
2023-02-24T00:30:33.328Z,61.40
2023-02-24T00:33:02.797Z,61.11
2023-02-24T00:35:32.557Z,60.98
2023-02-24T00:38:01.018Z,61.00
2023-02-24T00:40:30.969Z,60.93
2023-02-24T00:43:00.834Z,60.64
2023-02-24T00:45:31.166Z,60.34
2023-02-24T00:47:59.452Z,60.20
2023-02-24T00:50:27.609Z,59.08
2023-02-24T00:52:55.770Z,58.28
2023-02-24T00:55:24.048Z,58.76
2023-02-24T00:57:52.117Z,59.46
2023-02-24T01:00:20.834Z,60.36
2023-02-24T01:02:49.087Z,61.02
2023-02-24T01:05:17.163Z,62.38
2023-02-24T01:07:45.123Z,64.26
2023-02-24T01:10:13.190Z,64.14
2023-02-24T01:12:50.270Z,64.27
2023-02-24T01:15:21.376Z,63.83
2023-02-24T01:17:49.492Z,62.83
2023-02-24T01:20:19.152Z,62.58
2023-02-24T01:22:50.358Z,62.41
2023-02-24T01:25:20.751Z,62.25
2023-02-24T01:27:49.186Z,61.42
2023-02-24T01:30:18.531Z,61.72
2023-02-24T01:32:47.738Z,61.62
2023-02-24T01:35:16.481Z,61.49
2023-02-24T01:37:45.822Z,60.93
2023-02-24T01:40:20.954Z,60.89
2023-02-24T01:42:49.971Z,60.82
2023-02-24T01:45:36.868Z,60.50
2023-02-24T01:48:08.550Z,60.49
2023-02-24T01:50:38.738Z,60.39
2023-02-24T01:53:08.649Z,60.17
2023-02-24T01:55:43.651Z,60.06
2023-02-24T01:58:22.548Z,59.10
2023-02-24T02:00:51.942Z,58.46
2023-02-24T02:03:35.663Z,58.89
2023-02-24T02:06:09.270Z,59.61
2023-02-24T02:08:42.869Z,60.67
2023-02-24T02:11:14.933Z,62.33
2023-02-24T02:13:45.882Z,64.25
2023-02-24T02:16:28.236Z,64.43
2023-02-24T02:19:23.035Z,64.19
2023-02-24T02:22:09.782Z,63.73
2023-02-24T02:25:12.591Z,63.21
2023-02-24T02:28:20.062Z,62.54
2023-02-24T02:31:16.344Z,62.17
2023-02-24T02:33:44.576Z,62.15
2023-02-24T02:36:32.016Z,62.00
2023-02-24T02:39:06.223Z,61.52
2023-02-24T02:41:51.201Z,61.74
2023-02-24T02:44:19.153Z,61.89
2023-02-24T02:47:00.739Z,61.61
2023-02-24T02:49:42.389Z,61.35
2023-02-24T02:52:18.068Z,60.92
2023-02-24T02:54:57.810Z,61.01
2023-02-24T02:57:31.733Z,60.81
2023-02-24T03:00:12.451Z,61.08
2023-02-24T03:02:47.319Z,61.28
2023-02-24T03:05:20.378Z,61.11
2023-02-24T03:07:55.026Z,60.38
2023-02-24T03:10:27.855Z,60.73
2023-02-24T03:12:59.881Z,60.82
2023-02-24T03:15:33.742Z,60.71
2023-02-24T03:18:10.682Z,60.71
2023-02-24T03:20:44.156Z,60.25
2023-02-24T03:23:16.961Z,60.22
2023-02-24T03:26:06.410Z,60.35
2023-02-24T03:28:37.620Z,60.55
2023-02-24T03:31:19.290Z,60.60
2023-02-24T03:34:16.195Z,60.53
2023-02-24T03:36:44.709Z,60.86
2023-02-24T03:39:12.948Z,61.05
2023-02-24T03:41:58.121Z,61.07
2023-02-24T03:44:29.064Z,60.99
2023-02-24T03:46:57.130Z,60.98
2023-02-24T03:49:25.630Z,60.43
2023-02-24T03:52:09.062Z,60.94
2023-02-24T03:54:59.478Z,61.00
2023-02-24T03:57:28.124Z,61.33
2023-02-24T03:59:58.043Z,61.38
2023-02-24T04:02:33.121Z,61.03
2023-02-24T04:05:37.908Z,61.55
2023-02-24T04:08:09.354Z,61.84
2023-02-24T04:10:58.723Z,61.97
2023-02-24T04:13:43.708Z,61.93
2023-02-24T04:16:18.822Z,61.98
2023-02-24T04:18:51.922Z,61.88
2023-02-24T04:21:23.252Z,62.02
2023-02-24T04:23:51.742Z,62.00
2023-02-24T04:26:20.962Z,61.81
2023-02-24T04:28:49.112Z,61.87
2023-02-24T04:31:21.888Z,61.84
2023-02-24T04:33:53.590Z,62.03
2023-02-24T04:36:27.544Z,62.42
2023-02-24T04:38:55.845Z,62.14
2023-02-24T04:41:24.828Z,62.15
2023-02-24T04:43:52.811Z,62.14
2023-02-24T04:46:20.917Z,63.34
2023-02-24T04:48:51.704Z,62.75
2023-02-24T04:51:21.294Z,62.36
2023-02-24T04:53:50.212Z,62.60
2023-02-24T04:56:19.018Z,62.46
2023-02-24T04:58:47.062Z,62.52
2023-02-24T05:01:15.383Z,62.76
2023-02-24T05:03:43.613Z,62.51
2023-02-24T05:06:16.209Z,62.56
2023-02-24T05:08:45.389Z,62.59
2023-02-24T05:11:19.274Z,63.02
2023-02-24T05:13:47.889Z,63.05
2023-02-24T05:16:18.417Z,62.65
2023-02-24T05:18:46.920Z,62.89
2023-02-24T05:21:36.171Z,63.14
2023-02-24T05:24:07.130Z,63.44
2023-02-24T05:26:37.738Z,63.27
2023-02-24T05:29:07.737Z,63.46
2023-02-24T05:31:37.449Z,63.20
2023-02-24T05:34:08.333Z,63.54
2023-02-24T05:36:41.016Z,64.14
2023-02-24T05:39:12.902Z,64.16
2023-02-24T05:41:43.582Z,63.82
2023-02-24T05:44:22.806Z,63.92
2023-02-24T05:46:58.998Z,63.91
2023-02-24T05:49:33.884Z,64.04
2023-02-24T05:52:08.199Z,63.75
2023-02-24T05:54:45.327Z,63.46
2023-02-24T05:57:17.504Z,63.66
2023-02-24T05:59:46.135Z,63.94
2023-02-24T06:02:16.394Z,64.00
2023-02-24T06:04:51.424Z,63.89
2023-02-24T06:07:27.112Z,63.73
2023-02-24T06:09:57.573Z,63.93
2023-02-24T06:12:32.127Z,64.27
2023-02-24T06:15:01.153Z,64.26
2023-02-24T06:17:29.762Z,64.13
2023-02-24T06:19:58.150Z,64.40
2023-02-24T06:22:27.089Z,63.88
2023-02-24T06:24:57.363Z,64.06
2023-02-24T06:27:26.374Z,64.16
2023-02-24T06:29:55.449Z,63.96
2023-02-24T06:32:26.265Z,64.06
2023-02-24T06:34:55.521Z,64.23
2023-02-24T06:37:24.925Z,64.10
2023-02-24T06:39:53.062Z,64.26
2023-02-24T06:42:21.138Z,64.38
2023-02-24T06:44:50.706Z,64.16
2023-02-24T06:47:18.713Z,64.22
2023-02-24T06:49:48.127Z,64.40
2023-02-24T06:52:19.343Z,64.27
2023-02-24T06:54:49.806Z,64.22
2023-02-24T06:57:18.683Z,63.92
2023-02-24T06:59:49.152Z,64.24
2023-02-24T07:02:17.865Z,64.57
2023-02-24T07:04:46.065Z,64.36
2023-02-24T07:07:17.724Z,64.55
2023-02-24T07:09:45.896Z,64.71
2023-02-24T07:12:15.735Z,64.79
2023-02-24T07:14:44.208Z,64.78
2023-02-24T07:17:14.909Z,64.85
2023-02-24T07:19:44.318Z,64.74
2023-02-24T07:22:14.866Z,64.55
2023-02-24T07:24:46.492Z,64.51
2023-02-24T07:27:23.001Z,64.47
2023-02-24T07:29:53.226Z,64.51
2023-02-24T07:32:22.909Z,64.43
2023-02-24T07:34:51.279Z,64.38
2023-02-24T07:37:20.831Z,64.33
2023-02-24T07:39:48.859Z,64.38
2023-02-24T07:42:16.940Z,64.38
2023-02-24T07:44:46.977Z,64.30
2023-02-24T07:47:16.332Z,64.39
2023-02-24T07:49:45.744Z,64.49
2023-02-24T07:52:14.014Z,64.19
2023-02-24T07:54:41.995Z,64.40
2023-02-24T07:57:14.246Z,64.52
2023-02-24T07:59:45.810Z,64.45
2023-02-24T08:02:14.180Z,64.45
2023-02-24T08:04:50.372Z,64.36
2023-02-24T08:07:25.240Z,64.18
2023-02-24T08:10:13.809Z,64.46
2023-02-24T08:12:43.047Z,64.27
2023-02-24T08:15:18.621Z,64.26
2023-02-24T08:17:47.768Z,64.55
2023-02-24T08:20:16.147Z,64.62
2023-02-24T08:22:52.299Z,64.25
2023-02-24T08:25:24.788Z,64.34
2023-02-24T08:28:07.498Z,64.51
2023-02-24T08:30:40.900Z,64.07
2023-02-24T08:33:20.978Z,64.21
2023-02-24T08:36:01.322Z,64.04
2023-02-24T08:38:45.146Z,63.76
2023-02-24T08:41:18.417Z,64.00
2023-02-24T08:43:48.460Z,64.02
2023-02-24T08:46:21.350Z,63.76
2023-02-24T08:48:55.769Z,63.72
2023-02-24T08:51:28.946Z,63.85
2023-02-24T08:54:00.891Z,63.68
2023-02-24T08:56:34.570Z,63.58
2023-02-24T08:59:06.502Z,63.36
2023-02-24T09:01:39.942Z,63.40
2023-02-24T09:04:11.649Z,63.50
2023-02-24T09:06:44.590Z,63.34
2023-02-24T09:09:17.679Z,63.34
2023-02-24T09:11:48.477Z,63.45
2023-02-24T09:14:28.948Z,63.39
2023-02-24T09:17:11.939Z,63.36
2023-02-24T09:20:01.830Z,63.45
2023-02-24T09:30:08.333Z,63.88
2023-02-24T09:32:36.565Z,63.72
2023-02-24T09:35:05.405Z,63.54
2023-02-24T09:37:33.354Z,63.83
2023-02-24T09:40:33.589Z,63.70
2023-02-24T09:43:11.319Z,63.75
2023-02-24T09:45:41.112Z,63.74
2023-02-24T09:48:21.348Z,63.58
2023-02-24T09:51:05.201Z,63.50
2023-02-24T09:53:41.679Z,63.53
2023-02-24T09:56:37.428Z,63.24
2023-02-24T09:59:10.539Z,63.26
2023-02-24T10:02:10.338Z,63.11
2023-02-24T10:05:07.437Z,63.19
2023-02-24T10:10:28.387Z,63.32
2023-02-24T10:13:30.627Z,63.37
2023-02-24T10:16:13.204Z,63.43
2023-02-24T10:19:12.034Z,63.24
2023-02-24T10:22:00.573Z,63.29
2023-02-24T10:25:01.596Z,63.33
2023-02-24T10:27:41.450Z,63.05
2023-02-24T10:30:41.216Z,62.89
2023-02-24T10:33:20.716Z,62.86
2023-02-24T10:35:50.432Z,62.74
2023-02-24T10:38:18.428Z,62.68
2023-02-24T10:40:56.897Z,62.85
2023-02-24T10:43:30.394Z,62.88
2023-02-24T10:46:06.710Z,62.85
2023-02-24T10:48:42.582Z,62.85
2023-02-24T10:51:30.576Z,63.11
2023-02-24T10:54:31.346Z,62.93
2023-02-24T10:57:38.313Z,62.85
2023-02-24T11:00:18.563Z,63.03
2023-02-24T11:03:10.790Z,62.99
2023-02-24T11:06:04.894Z,62.94
2023-02-24T11:08:44.323Z,62.81
2023-02-24T11:11:26.193Z,62.69
2023-02-24T11:14:14.438Z,62.77
2023-02-24T11:17:12.281Z,63.06
2023-02-24T11:19:56.462Z,63.20
2023-02-24T11:22:32.431Z,63.21
2023-02-24T11:25:07.825Z,63.21
2023-02-24T11:27:36.341Z,63.01
2023-02-24T11:30:15.163Z,62.89
2023-02-24T11:32:49.968Z,62.89
2023-02-24T11:35:37.313Z,62.87
2023-02-24T11:38:17.829Z,62.84
2023-02-24T11:40:53.652Z,62.88
2023-02-24T11:43:28.303Z,62.88
2023-02-24T11:46:07.403Z,62.78
2023-02-24T11:48:38.322Z,62.65
2023-02-24T11:51:18.597Z,62.56
2023-02-24T11:54:00.700Z,62.57
2023-02-24T11:56:38.785Z,62.22
2023-02-24T11:59:25.377Z,62.11
2023-02-24T12:02:06.362Z,62.07
2023-02-24T12:04:54.915Z,62.11
2023-02-24T12:07:30.007Z,62.11
2023-02-24T12:10:17.366Z,61.98
2023-02-24T12:13:07.055Z,62.03
2023-02-24T12:15:48.892Z,61.98
2023-02-24T12:18:34.283Z,61.79
2023-02-24T12:21:19.426Z,61.62
2023-02-24T12:23:51.005Z,61.59
2023-02-24T12:26:55.870Z,61.41
2023-02-24T12:29:42.576Z,61.24
2023-02-24T12:32:25.344Z,60.96
2023-02-24T12:35:21.870Z,60.71
2023-02-24T12:37:51.363Z,60.29
2023-02-24T12:40:40.416Z,60.34
2023-02-24T12:43:39.915Z,59.82
2023-02-24T12:46:27.137Z,58.68
2023-02-24T12:49:13.653Z,58.55
2023-02-24T12:51:50.719Z,60.39
2023-02-24T12:54:30.074Z,60.73
2023-02-24T12:57:04.318Z,63.33
2023-02-24T12:59:38.619Z,63.72
2023-02-24T13:02:19.773Z,63.02
2023-02-24T13:05:16.251Z,62.15
2023-02-24T13:07:53.388Z,62.00
2023-02-24T13:10:31.191Z,61.69
2023-02-24T13:13:30.489Z,61.13
2023-02-24T13:16:02.960Z,60.87
2023-02-24T13:18:36.419Z,60.60
2023-02-24T13:21:24.842Z,60.22
2023-02-24T13:23:59.999Z,60.14
2023-02-24T13:26:31.016Z,60.25
2023-02-24T13:29:01.111Z,60.14
2023-02-24T13:31:41.771Z,60.13
2023-02-24T13:34:22.233Z,60.27
2023-02-24T13:36:51.126Z,60.33
2023-02-24T13:39:33.716Z,60.19
2023-02-24T13:42:22.993Z,59.90
2023-02-24T13:45:09.513Z,59.76
2023-02-24T13:47:37.372Z,59.64
2023-02-24T13:50:05.761Z,59.79
2023-02-24T13:52:36.798Z,59.14
2023-02-24T13:55:20.434Z,59.26
2023-02-24T13:58:10.210Z,59.18
2023-02-24T14:00:59.195Z,60.27
2023-02-24T14:03:29.393Z,62.85
2023-02-24T14:05:59.445Z,63.31
2023-02-24T14:08:54.464Z,62.99
2023-02-24T14:11:28.571Z,62.60
2023-02-24T14:13:57.732Z,61.83
2023-02-24T14:16:32.852Z,61.31
2023-02-24T14:19:02.800Z,61.15
2023-02-24T14:21:33.832Z,60.89
2023-02-24T14:24:09.874Z,60.63
2023-02-24T14:26:44.578Z,60.40
2023-02-24T14:29:17.871Z,60.14
2023-02-24T14:32:05.378Z,60.03
2023-02-24T14:34:34.950Z,59.84
2023-02-24T14:37:04.259Z,59.63
2023-02-24T14:39:34.434Z,59.32
2023-02-24T14:42:09.839Z,58.69
2023-02-24T14:45:16.484Z,60.15
2023-02-24T14:47:44.639Z,60.78
2023-02-24T14:50:24.484Z,62.74
2023-02-24T14:53:10.072Z,63.70
2023-02-24T14:55:42.264Z,63.66
2023-02-24T14:58:52.519Z,63.44
2023-02-24T15:01:30.871Z,62.82
2023-02-24T15:04:10.470Z,62.04
2023-02-24T15:06:43.029Z,61.85
2023-02-24T15:09:19.344Z,61.32
2023-02-24T15:11:48.300Z,61.29
2023-02-24T15:14:32.729Z,60.64
2023-02-24T15:17:10.678Z,60.32
2023-02-24T15:19:49.366Z,60.28
2023-02-24T15:22:22.160Z,60.16
2023-02-24T15:24:52.160Z,60.28
2023-02-24T15:27:23.829Z,60.18
2023-02-24T15:30:27.512Z,60.12
2023-02-24T15:33:06.029Z,60.14
2023-02-24T15:35:39.317Z,60.04
2023-02-24T15:38:07.502Z,59.85
2023-02-24T15:40:35.972Z,59.77
2023-02-24T15:43:12.074Z,59.74
2023-02-24T15:45:40.416Z,59.85
2023-02-24T15:48:23.278Z,59.93
2023-02-24T15:50:51.317Z,59.93
2023-02-24T15:53:19.271Z,59.83
2023-02-24T15:55:47.341Z,59.68
2023-02-24T15:58:22.211Z,59.76
2023-02-24T16:00:52.671Z,59.80
2023-02-24T16:03:20.977Z,59.85
2023-02-24T16:05:48.980Z,59.95
2023-02-24T16:08:20.064Z,60.01
2023-02-24T16:10:50.579Z,60.02
2023-02-24T16:13:22.981Z,60.12
2023-02-24T16:15:51.888Z,60.14
2023-02-24T16:18:23.472Z,60.36
2023-02-24T16:20:57.164Z,60.20
2023-02-24T16:23:26.517Z,60.50
2023-02-24T16:25:59.834Z,60.65
2023-02-24T16:28:28.139Z,60.65
2023-02-24T16:30:56.306Z,60.72
2023-02-24T16:33:24.504Z,60.70
2023-02-24T16:35:55.703Z,60.79
2023-02-24T16:38:27.961Z,60.67
2023-02-24T16:40:56.554Z,60.71
2023-02-24T16:43:25.034Z,60.71
2023-02-24T16:45:55.909Z,60.87
2023-02-24T16:48:26.497Z,60.77
2023-02-24T16:50:54.779Z,61.06
2023-02-24T16:53:24.172Z,61.00
2023-02-24T16:55:52.567Z,60.95
2023-02-24T16:58:20.723Z,60.71
2023-02-24T17:00:50.755Z,60.95
2023-02-24T17:03:25.618Z,60.94
2023-02-24T17:05:54.679Z,61.06
2023-02-24T17:08:23.251Z,60.96
2023-02-24T17:10:52.014Z,60.87
2023-02-24T17:13:22.058Z,60.90
2023-02-24T17:15:57.124Z,60.64
2023-02-24T17:18:26.505Z,60.52
2023-02-24T17:20:54.979Z,60.05
2023-02-24T17:23:23.690Z,59.92
2023-02-24T17:25:58.646Z,58.92
2023-02-24T17:28:27.494Z,57.62
2023-02-24T17:30:55.631Z,58.69
2023-02-24T17:33:23.875Z,59.33
2023-02-24T17:35:52.010Z,60.09
2023-02-24T17:38:23.314Z,61.28
2023-02-24T17:40:51.361Z,63.85
2023-02-24T17:43:19.559Z,64.82
2023-02-24T17:45:48.077Z,64.70
2023-02-24T17:48:16.239Z,64.07
2023-02-24T17:50:45.919Z,63.35
2023-02-24T17:53:14.951Z,62.59
2023-02-24T17:56:00.954Z,61.81
2023-02-24T17:58:31.173Z,61.87
2023-02-24T18:01:02.116Z,61.71
2023-02-24T18:03:32.196Z,61.37
2023-02-24T18:06:07.027Z,60.71
2023-02-24T18:08:37.678Z,60.54
2023-02-24T18:11:07.280Z,60.33
2023-02-24T18:13:35.720Z,60.10
2023-02-24T18:16:09.269Z,59.65
2023-02-24T18:18:37.743Z,59.64
2023-02-24T18:21:07.102Z,58.94
2023-02-24T18:23:38.331Z,57.85
2023-02-24T18:26:08.203Z,58.25
2023-02-24T18:28:36.916Z,59.14
2023-02-24T18:31:14.049Z,60.07
2023-02-24T18:33:42.960Z,60.83
2023-02-24T18:36:12.068Z,62.63
2023-02-24T18:38:40.556Z,64.49
2023-02-24T18:41:12.476Z,64.41
2023-02-24T18:43:40.681Z,63.91
2023-02-24T18:46:13.419Z,63.44
2023-02-24T18:48:44.884Z,63.13
2023-02-24T18:51:18.844Z,62.76
2023-02-24T18:53:47.523Z,62.42
2023-02-24T18:56:18.494Z,62.13
2023-02-24T18:58:47.872Z,61.82
2023-02-24T19:01:20.612Z,61.51
2023-02-24T19:03:50.785Z,61.32
2023-02-24T19:06:21.419Z,61.15
2023-02-24T19:08:57.489Z,60.84
2023-02-24T19:11:26.312Z,60.74
2023-02-24T19:13:55.629Z,60.46
2023-02-24T19:16:23.943Z,60.12
2023-02-24T19:18:56.301Z,59.92
2023-02-24T19:21:27.466Z,59.09
2023-02-24T19:23:59.274Z,58.03
2023-02-24T19:26:28.474Z,58.66
2023-02-24T19:28:58.696Z,59.44
2023-02-24T19:31:29.668Z,60.29
2023-02-24T19:34:02.353Z,61.14
2023-02-24T19:36:32.933Z,62.88
2023-02-24T19:39:02.364Z,64.27
2023-02-24T19:41:31.442Z,64.20
2023-02-24T19:43:59.963Z,63.84
2023-02-24T19:46:35.342Z,63.34
2023-02-24T19:49:06.648Z,63.02
2023-02-24T19:51:34.592Z,62.61
2023-02-24T19:54:05.449Z,62.06
2023-02-24T19:56:36.269Z,61.93
2023-02-24T19:59:06.985Z,61.67
2023-02-24T20:01:35.391Z,61.39
2023-02-24T20:04:04.692Z,61.23
2023-02-24T20:06:38.985Z,60.98
2023-02-24T20:09:09.098Z,60.75
2023-02-24T20:11:39.182Z,60.49
2023-02-24T20:14:09.538Z,60.44
2023-02-24T20:16:39.604Z,60.34
2023-02-24T20:19:09.498Z,60.14
2023-02-24T20:21:38.738Z,60.01
2023-02-24T20:24:13.833Z,59.89
2023-02-24T20:26:47.195Z,59.77
2023-02-24T20:29:18.184Z,58.99
2023-02-24T20:31:47.871Z,58.01
2023-02-24T20:34:16.880Z,58.58
2023-02-24T20:36:45.437Z,59.46
2023-02-24T20:39:13.521Z,60.54
2023-02-24T20:41:42.190Z,62.15
2023-02-24T20:44:11.344Z,63.82
2023-02-24T20:46:39.586Z,63.94
2023-02-24T20:49:10.805Z,63.62
2023-02-24T20:51:39.005Z,63.18
2023-02-24T21:01:41.805Z,61.24
2023-02-24T21:04:12.757Z,60.67
2023-02-24T21:06:41.334Z,60.79
2023-02-24T21:09:11.995Z,61.33
2023-02-24T21:11:40.027Z,62.85
2023-02-24T21:14:08.196Z,64.67
2023-02-24T21:16:36.193Z,64.87
2023-02-24T21:19:04.441Z,64.37
2023-02-24T21:21:33.226Z,64.01
2023-02-24T21:24:01.214Z,63.36
2023-02-24T21:26:29.376Z,62.87
2023-02-24T21:28:58.809Z,62.88
2023-02-24T21:31:28.156Z,62.81
2023-02-24T21:33:56.881Z,62.51
2023-02-24T21:36:26.345Z,62.23
2023-02-24T21:38:55.273Z,62.08
2023-02-24T21:41:24.015Z,61.77
2023-02-24T21:43:55.202Z,61.71
2023-02-24T21:46:28.563Z,61.45
2023-02-24T21:48:58.774Z,61.32
2023-02-24T21:51:29.273Z,61.19
2023-02-24T21:53:57.957Z,61.09
2023-02-24T21:56:28.560Z,61.01
2023-02-24T21:59:01.879Z,61.09
2023-02-24T22:01:29.866Z,61.07
2023-02-24T22:04:00.040Z,60.85
2023-02-24T22:06:31.614Z,60.72
2023-02-24T22:09:02.423Z,60.66
2023-02-24T22:11:33.002Z,60.67
2023-02-24T22:14:01.833Z,60.28
2023-02-24T22:16:30.101Z,60.49
2023-02-24T22:18:58.286Z,60.49
2023-02-24T22:21:29.162Z,60.51
2023-02-24T22:24:00.228Z,60.50
2023-02-24T22:26:30.185Z,60.51
2023-02-24T22:28:59.271Z,60.46
2023-02-24T22:31:30.275Z,60.51
2023-02-24T22:33:59.045Z,60.47
2023-02-24T22:36:29.839Z,60.73
2023-02-24T22:38:59.263Z,60.67
2023-02-24T22:41:31.410Z,60.82
2023-02-24T22:44:00.622Z,60.96
2023-02-24T22:46:34.832Z,60.95
2023-02-24T22:49:03.109Z,61.05
2023-02-24T22:51:31.476Z,60.97
2023-02-24T22:53:59.547Z,60.89
2023-02-24T22:56:29.474Z,60.85
2023-02-24T22:58:58.664Z,60.76
2023-02-24T23:01:29.619Z,60.78
2023-02-24T23:04:05.896Z,61.01
2023-02-24T23:06:36.129Z,61.12
2023-02-24T23:09:05.885Z,61.02
2023-02-24T23:11:38.084Z,60.92
2023-02-24T23:14:10.200Z,60.96
2023-02-24T23:16:39.061Z,60.78
2023-02-24T23:19:12.200Z,61.02
2023-02-24T23:21:42.404Z,61.03
2023-02-24T23:24:11.764Z,61.12
2023-02-24T23:26:43.975Z,61.01
2023-02-24T23:29:15.233Z,61.01
2023-02-24T23:31:44.625Z,60.91
2023-02-24T23:34:13.452Z,60.82
2023-02-24T23:36:44.371Z,60.75
2023-02-24T23:39:14.930Z,60.76
2023-02-24T23:41:43.376Z,60.87
2023-02-24T23:44:12.919Z,60.88
2023-02-24T23:46:42.027Z,60.65
2023-02-24T23:49:10.187Z,60.82
2023-02-24T23:51:48.019Z,60.82
2023-02-24T23:54:18.515Z,60.79
2023-02-24T23:56:46.790Z,60.90
2023-02-24T23:59:15.451Z,60.92
